sensor_id;sensor_type;location;lat;lon;timestamp;pressure;altitude;pressure_sealevel;temperature
42197;BMP280;27866;48.146;17.098;2022-09-24T00:00:46;99672.88;;;13.82
42197;BMP280;27866;48.146;17.098;2022-09-24T00:05:02;99675.41;;;13.73
42197;BMP280;27866;48.146;17.098;2022-09-24T00:09:18;99677.03;;;13.74
42197;BMP280;27866;48.146;17.098;2022-09-24T00:13:34;99670.78;;;13.76
42197;BMP280;27866;48.146;17.098;2022-09-24T00:17:45;99667.94;;;13.68
42197;BMP280;27866;48.146;17.098;2022-09-24T00:21:57;99666.78;;;13.62
42197;BMP280;27866;48.146;17.098;2022-09-24T00:26:12;99661.38;;;13.54
42197;BMP280;27866;48.146;17.098;2022-09-24T00:30:43;99663.41;;;13.50
42197;BMP280;27866;48.146;17.098;2022-09-24T00:34:54;99670.13;;;13.53
42197;BMP280;27866;48.146;17.098;2022-09-24T00:39:06;99668.22;;;13.55
42197;BMP280;27866;48.146;17.098;2022-09-24T00:43:29;99664.72;;;13.45
42197;BMP280;27866;48.146;17.098;2022-09-24T00:47:40;99655.84;;;13.47
42197;BMP280;27866;48.146;17.098;2022-09-24T00:51:52;99652.69;;;13.44
42197;BMP280;27866;48.146;17.098;2022-09-24T00:56:04;99648.88;;;13.48
42197;BMP280;27866;48.146;17.098;2022-09-24T01:00:17;99654.56;;;13.42
42197;BMP280;27866;48.146;17.098;2022-09-24T01:04:29;99652.34;;;13.38
42197;BMP280;27866;48.146;17.098;2022-09-24T01:08:41;99652.59;;;13.35
42197;BMP280;27866;48.146;17.098;2022-09-24T01:12:58;99645.72;;;13.34
42197;BMP280;27866;48.146;17.098;2022-09-24T01:17:24;99647.53;;;13.33
42197;BMP280;27866;48.146;17.098;2022-09-24T01:22:05;99649.91;;;13.26
42197;BMP280;27866;48.146;17.098;2022-09-24T01:31:42;99619.22;;;13.20
42197;BMP280;27866;48.146;17.098;2022-09-24T01:35:59;99624.19;;;13.12
42197;BMP280;27866;48.146;17.098;2022-09-24T01:40:14;99623.13;;;13.15
42197;BMP280;27866;48.146;17.098;2022-09-24T01:44:27;99619.69;;;13.14
42197;BMP280;27866;48.146;17.098;2022-09-24T01:48:40;99617.09;;;13.14
42197;BMP280;27866;48.146;17.098;2022-09-24T01:57:28;99619.44;;;13.17
42197;BMP280;27866;48.146;17.098;2022-09-24T02:06:43;99600.81;;;13.02
42197;BMP280;27866;48.146;17.098;2022-09-24T02:11:21;99592.09;;;13.03
42197;BMP280;27866;48.146;17.098;2022-09-24T02:15:51;99585.69;;;13.06
42197;BMP280;27866;48.146;17.098;2022-09-24T02:20:21;99592.66;;;13.06
42197;BMP280;27866;48.146;17.098;2022-09-24T02:24:56;99589.50;;;13.03
42197;BMP280;27866;48.146;17.098;2022-09-24T02:29:23;99580.41;;;12.97
42197;BMP280;27866;48.146;17.098;2022-09-24T02:33:50;99585.75;;;12.96
42197;BMP280;27866;48.146;17.098;2022-09-24T02:38:35;99578.94;;;12.84
42197;BMP280;27866;48.146;17.098;2022-09-24T02:43:01;99562.72;;;12.81
42197;BMP280;27866;48.146;17.098;2022-09-24T02:47:28;99556.25;;;12.75
42197;BMP280;27866;48.146;17.098;2022-09-24T02:51:54;99561.72;;;12.73
42197;BMP280;27866;48.146;17.098;2022-09-24T02:56:20;99566.41;;;12.78
42197;BMP280;27866;48.146;17.098;2022-09-24T03:00:46;99564.31;;;12.73
42197;BMP280;27866;48.146;17.098;2022-09-24T03:05:13;99578.50;;;12.58
42197;BMP280;27866;48.146;17.098;2022-09-24T03:09:42;99573.19;;;12.60
42197;BMP280;27866;48.146;17.098;2022-09-24T03:14:08;99559.81;;;12.64
42197;BMP280;27866;48.146;17.098;2022-09-24T03:18:38;99561.72;;;12.62
42197;BMP280;27866;48.146;17.098;2022-09-24T03:23:08;99559.81;;;12.64
42197;BMP280;27866;48.146;17.098;2022-09-24T03:27:37;99557.63;;;12.60
42197;BMP280;27866;48.146;17.098;2022-09-24T03:32:07;99563.75;;;12.59
42197;BMP280;27866;48.146;17.098;2022-09-24T03:36:36;99560.09;;;12.50
42197;BMP280;27866;48.146;17.098;2022-09-24T03:41:08;99567.38;;;12.45
42197;BMP280;27866;48.146;17.098;2022-09-24T03:45:38;99561.03;;;12.39
42197;BMP280;27866;48.146;17.098;2022-09-24T03:50:08;99567.03;;;12.39
42197;BMP280;27866;48.146;17.098;2022-09-24T03:54:40;99566.22;;;12.39
42197;BMP280;27866;48.146;17.098;2022-09-24T03:59:10;99566.72;;;12.33
42197;BMP280;27866;48.146;17.098;2022-09-24T04:03:40;99560.31;;;12.26
42197;BMP280;27866;48.146;17.098;2022-09-24T04:08:09;99553.72;;;12.22
42197;BMP280;27866;48.146;17.098;2022-09-24T04:12:39;99555.03;;;12.17
42197;BMP280;27866;48.146;17.098;2022-09-24T04:17:09;99551.25;;;12.21
42197;BMP280;27866;48.146;17.098;2022-09-24T04:21:38;99547.72;;;12.22
42197;BMP280;27866;48.146;17.098;2022-09-24T04:26:08;99548.53;;;12.22
42197;BMP280;27866;48.146;17.098;2022-09-24T04:30:38;99559.16;;;12.19
42197;BMP280;27866;48.146;17.098;2022-09-24T04:35:09;99562.22;;;12.24
42197;BMP280;27866;48.146;17.098;2022-09-24T04:39:38;99561.97;;;12.38
42197;BMP280;27866;48.146;17.098;2022-09-24T04:44:08;99539.31;;;12.50
42197;BMP280;27866;48.146;17.098;2022-09-24T04:48:39;99547.31;;;12.58
42197;BMP280;27866;48.146;17.098;2022-09-24T04:53:09;99544.72;;;12.47
42197;BMP280;27866;48.146;17.098;2022-09-24T04:57:39;99544.72;;;12.47
42197;BMP280;27866;48.146;17.098;2022-09-24T05:02:09;99546.66;;;12.56
42197;BMP280;27866;48.146;17.098;2022-09-24T05:06:38;99536.66;;;12.72
42197;BMP280;27866;48.146;17.098;2022-09-24T05:11:08;99536.88;;;12.79
42197;BMP280;27866;48.146;17.098;2022-09-24T05:15:38;99523.25;;;12.87
42197;BMP280;27866;48.146;17.098;2022-09-24T05:20:08;99526.91;;;12.95
42197;BMP280;27866;48.146;17.098;2022-09-24T05:24:39;99541.75;;;13.03
42197;BMP280;27866;48.146;17.098;2022-09-24T05:29:09;99540.03;;;13.13
42197;BMP280;27866;48.146;17.098;2022-09-24T05:33:39;99541.53;;;13.46
42197;BMP280;27866;48.146;17.098;2022-09-24T05:38:08;99530.31;;;13.65
42197;BMP280;27866;48.146;17.098;2022-09-24T05:42:38;99536.84;;;13.80
42197;BMP280;27866;48.146;17.098;2022-09-24T05:47:08;99535.22;;;13.79
42197;BMP280;27866;48.146;17.098;2022-09-24T05:51:38;99545.66;;;14.74
42197;BMP280;27866;48.146;17.098;2022-09-24T05:56:08;99553.59;;;17.73
42197;BMP280;27866;48.146;17.098;2022-09-24T06:00:39;99556.94;;;18.07
42197;BMP280;27866;48.146;17.098;2022-09-24T06:05:10;99544.13;;;15.91
42197;BMP280;27866;48.146;17.098;2022-09-24T06:09:39;99563.06;;;15.21
42197;BMP280;27866;48.146;17.098;2022-09-24T06:14:09;99559.22;;;15.34
42197;BMP280;27866;48.146;17.098;2022-09-24T06:18:42;99558.09;;;15.08
42197;BMP280;27866;48.146;17.098;2022-09-24T06:23:12;99563.31;;;14.90
42197;BMP280;27866;48.146;17.098;2022-09-24T06:27:42;99573.88;;;14.98
42197;BMP280;27866;48.146;17.098;2022-09-24T06:32:12;99567.69;;;14.90
42197;BMP280;27866;48.146;17.098;2022-09-24T06:36:41;99564.97;;;15.37
42197;BMP280;27866;48.146;17.098;2022-09-24T06:41:11;99571.53;;;15.87
42197;BMP280;27866;48.146;17.098;2022-09-24T06:45:41;99584.66;;;15.94
42197;BMP280;27866;48.146;17.098;2022-09-24T06:50:13;99577.53;;;15.96
42197;BMP280;27866;48.146;17.098;2022-09-24T06:54:43;99571.50;;;15.96
42197;BMP280;27866;48.146;17.098;2022-09-24T06:59:12;99569.72;;;15.78
42197;BMP280;27866;48.146;17.098;2022-09-24T07:03:42;99562.94;;;16.03
42197;BMP280;27866;48.146;17.098;2022-09-24T07:08:13;99562.41;;;15.91
42197;BMP280;27866;48.146;17.098;2022-09-24T07:12:43;99554.81;;;16.06
42197;BMP280;27866;48.146;17.098;2022-09-24T07:17:12;99550.00;;;16.11
42197;BMP280;27866;48.146;17.098;2022-09-24T07:21:42;99537.59;;;15.87
42197;BMP280;27866;48.146;17.098;2022-09-24T07:26:12;99540.34;;;16.21
42197;BMP280;27866;48.146;17.098;2022-09-24T07:30:42;99550.94;;;16.71
42197;BMP280;27866;48.146;17.098;2022-09-24T07:35:11;99557.38;;;16.77
42197;BMP280;27866;48.146;17.098;2022-09-24T07:39:41;99553.75;;;16.87
42197;BMP280;27866;48.146;17.098;2022-09-24T07:44:11;99554.34;;;16.81
42197;BMP280;27866;48.146;17.098;2022-09-24T07:48:41;99559.50;;;16.90
42197;BMP280;27866;48.146;17.098;2022-09-24T07:53:12;99564.22;;;16.78
42197;BMP280;27866;48.146;17.098;2022-09-24T07:57:48;99554.19;;;16.82
42197;BMP280;27866;48.146;17.098;2022-09-24T08:02:18;99557.38;;;16.77
42197;BMP280;27866;48.146;17.098;2022-09-24T08:06:48;99559.38;;;16.66
42197;BMP280;27866;48.146;17.098;2022-09-24T08:11:18;99548.75;;;16.93
42197;BMP280;27866;48.146;17.098;2022-09-24T08:15:59;99545.38;;;17.00
42197;BMP280;27866;48.146;17.098;2022-09-24T08:20:33;99537.78;;;17.24
42197;BMP280;27866;48.146;17.098;2022-09-24T08:25:03;99537.56;;;17.59
42197;BMP280;27866;48.146;17.098;2022-09-24T08:29:34;99532.25;;;17.68
42197;BMP280;27866;48.146;17.098;2022-09-24T08:34:03;99529.69;;;17.93
42197;BMP280;27866;48.146;17.098;2022-09-24T08:38:33;99531.16;;;18.27
42197;BMP280;27866;48.146;17.098;2022-09-24T08:48:18;99519.38;;;19.66
42197;BMP280;27866;48.146;17.098;2022-09-24T08:53:51;99526.56;;;19.95
42197;BMP280;27866;48.146;17.098;2022-09-24T09:03:57;99536.06;;;20.03
42197;BMP280;27866;48.146;17.098;2022-09-24T09:09:01;99532.72;;;21.50
42197;BMP280;27866;48.146;17.098;2022-09-24T09:18:25;99523.63;;;22.38
42197;BMP280;27866;48.146;17.098;2022-09-24T09:23:11;99528.84;;;22.94
42197;BMP280;27866;48.146;17.098;2022-09-24T09:27:42;99517.41;;;24.10
42197;BMP280;27866;48.146;17.098;2022-09-24T09:32:44;99524.09;;;26.68
42197;BMP280;27866;48.146;17.098;2022-09-24T09:42:30;99523.13;;;28.66
42197;BMP280;27866;48.146;17.098;2022-09-24T09:47:25;99529.22;;;30.38
42197;BMP280;27866;48.146;17.098;2022-09-24T09:52:02;99522.09;;;33.01
42197;BMP280;27866;48.146;17.098;2022-09-24T09:56:39;99511.53;;;36.64
42197;BMP280;27866;48.146;17.098;2022-09-24T10:01:15;99518.53;;;35.59
42197;BMP280;27866;48.146;17.098;2022-09-24T10:05:57;99501.00;;;37.81
42197;BMP280;27866;48.146;17.098;2022-09-24T10:10:28;99499.19;;;39.32
42197;BMP280;27866;48.146;17.098;2022-09-24T10:15:04;99491.84;;;37.30
42197;BMP280;27866;48.146;17.098;2022-09-24T10:19:44;99483.41;;;37.83
42197;BMP280;27866;48.146;17.098;2022-09-24T10:24:24;99460.06;;;37.17
42197;BMP280;27866;48.146;17.098;2022-09-24T10:28:54;99464.94;;;35.91
42197;BMP280;27866;48.146;17.098;2022-09-24T10:33:46;99465.72;;;36.01
42197;BMP280;27866;48.146;17.098;2022-09-24T10:38:21;99462.41;;;38.35
42197;BMP280;27866;48.146;17.098;2022-09-24T10:43:01;99452.09;;;37.77
42197;BMP280;27866;48.146;17.098;2022-09-24T10:48:04;99452.19;;;34.19
42197;BMP280;27866;48.146;17.098;2022-09-24T10:57:30;99453.09;;;35.97
42197;BMP280;27866;48.146;17.098;2022-09-24T11:02:30;99447.94;;;35.76
42197;BMP280;27866;48.146;17.098;2022-09-24T11:12:32;99436.38;;;30.33
42197;BMP280;27866;48.146;17.098;2022-09-24T11:17:37;99432.09;;;30.21
42197;BMP280;27866;48.146;17.098;2022-09-24T11:40:16;99425.56;;;26.14
42197;BMP280;27866;48.146;17.098;2022-09-24T11:49:53;99435.03;;;25.35
42197;BMP280;27866;48.146;17.098;2022-09-24T11:59:19;99415.66;;;25.22
42197;BMP280;27866;48.146;17.098;2022-09-24T12:03:50;99408.28;;;25.49
42197;BMP280;27866;48.146;17.098;2022-09-24T12:08:53;99405.72;;;26.35
42197;BMP280;27866;48.146;17.098;2022-09-24T12:13:27;99408.84;;;27.05
42197;BMP280;27866;48.146;17.098;2022-09-24T12:17:44;99405.84;;;29.23
42197;BMP280;27866;48.146;17.098;2022-09-24T12:21:58;99399.16;;;28.75
42197;BMP280;27866;48.146;17.098;2022-09-24T12:26:15;99392.09;;;29.48
42197;BMP280;27866;48.146;17.098;2022-09-24T12:30:44;99396.09;;;30.73
42197;BMP280;27866;48.146;17.098;2022-09-24T12:39:50;99378.47;;;32.31
42197;BMP280;27866;48.146;17.098;2022-09-24T12:48:22;99394.31;;;34.67
42197;BMP280;27866;48.146;17.098;2022-09-24T12:52:42;99385.09;;;35.71
42197;BMP280;27866;48.146;17.098;2022-09-24T12:57:19;99384.53;;;36.12
42197;BMP280;27866;48.146;17.098;2022-09-24T13:01:32;99374.03;;;36.92
42197;BMP280;27866;48.146;17.098;2022-09-24T13:09:55;99376.56;;;38.36
42197;BMP280;27866;48.146;17.098;2022-09-24T13:18:24;99358.47;;;38.59
42197;BMP280;27866;48.146;17.098;2022-09-24T13:22:36;99356.66;;;38.72
42197;BMP280;27866;48.146;17.098;2022-09-24T13:26:47;99350.84;;;36.81
42197;BMP280;27866;48.146;17.098;2022-09-24T13:35:41;99344.19;;;31.76
42197;BMP280;27866;48.146;17.098;2022-09-24T13:40:02;99345.19;;;30.68
42197;BMP280;27866;48.146;17.098;2022-09-24T13:44:56;99338.66;;;33.12
42197;BMP280;27866;48.146;17.098;2022-09-24T13:49:17;99318.06;;;34.33
42197;BMP280;27866;48.146;17.098;2022-09-24T13:53:46;99321.16;;;34.10
42197;BMP280;27866;48.146;17.098;2022-09-24T13:57:59;99321.34;;;33.99
42197;BMP280;27866;48.146;17.098;2022-09-24T14:02:26;99311.88;;;33.87
42197;BMP280;27866;48.146;17.098;2022-09-24T14:07:04;99312.72;;;34.42
42197;BMP280;27866;48.146;17.098;2022-09-24T14:11:20;99310.78;;;32.87
42197;BMP280;27866;48.146;17.098;2022-09-24T14:15:34;99291.25;;;31.03
42197;BMP280;27866;48.146;17.098;2022-09-24T14:19:47;99306.44;;;30.05
42197;BMP280;27866;48.146;17.098;2022-09-24T14:24:28;99298.03;;;29.64
42197;BMP280;27866;48.146;17.098;2022-09-24T14:28:38;99302.53;;;28.79
42197;BMP280;27866;48.146;17.098;2022-09-24T14:33:00;99298.19;;;27.51
42197;BMP280;27866;48.146;17.098;2022-09-24T14:37:30;99297.91;;;26.28
42197;BMP280;27866;48.146;17.098;2022-09-24T14:41:42;99302.66;;;25.46
42197;BMP280;27866;48.146;17.098;2022-09-24T14:46:01;99310.03;;;25.06
42197;BMP280;27866;48.146;17.098;2022-09-24T14:50:37;99312.00;;;24.54
42197;BMP280;27866;48.146;17.098;2022-09-24T14:55:11;99305.47;;;23.98
42197;BMP280;27866;48.146;17.098;2022-09-24T14:59:29;99321.25;;;23.80
42197;BMP280;27866;48.146;17.098;2022-09-24T15:03:53;99310.13;;;23.57
42197;BMP280;27866;48.146;17.098;2022-09-24T15:12:41;99312.88;;;23.43
42197;BMP280;27866;48.146;17.098;2022-09-24T15:16:54;99302.81;;;23.26
42197;BMP280;27866;48.146;17.098;2022-09-24T15:21:05;99313.03;;;22.89
42197;BMP280;27866;48.146;17.098;2022-09-24T15:25:18;99303.13;;;22.70
42197;BMP280;27866;48.146;17.098;2022-09-24T15:29:30;99305.66;;;22.78
42197;BMP280;27866;48.146;17.098;2022-09-24T15:33:41;99306.72;;;22.63
42197;BMP280;27866;48.146;17.098;2022-09-24T15:37:52;99304.56;;;22.52
42197;BMP280;27866;48.146;17.098;2022-09-24T15:42:03;99311.44;;;22.47
42197;BMP280;27866;48.146;17.098;2022-09-24T15:46:14;99306.22;;;22.19
42197;BMP280;27866;48.146;17.098;2022-09-24T15:50:25;99309.34;;;22.08
42197;BMP280;27866;48.146;17.098;2022-09-24T15:54:36;99308.19;;;21.97
42197;BMP280;27866;48.146;17.098;2022-09-24T15:58:48;99303.47;;;21.78
42197;BMP280;27866;48.146;17.098;2022-09-24T16:03:00;99301.47;;;21.66
42197;BMP280;27866;48.146;17.098;2022-09-24T16:07:11;99295.94;;;21.48
42197;BMP280;27866;48.146;17.098;2022-09-24T16:11:23;99297.22;;;21.37
42197;BMP280;27866;48.146;17.098;2022-09-24T16:15:34;99294.28;;;21.18
42197;BMP280;27866;48.146;17.098;2022-09-24T16:19:45;99299.53;;;21.04
42197;BMP280;27866;48.146;17.098;2022-09-24T16:23:56;99301.47;;;20.89
42197;BMP280;27866;48.146;17.098;2022-09-24T16:28:07;99306.88;;;20.73
42197;BMP280;27866;48.146;17.098;2022-09-24T16:32:18;99296.16;;;20.60
42197;BMP280;27866;48.146;17.098;2022-09-24T16:36:30;99300.06;;;20.43
42197;BMP280;27866;48.146;17.098;2022-09-24T16:40:41;99298.81;;;20.31
42197;BMP280;27866;48.146;17.098;2022-09-24T16:44:52;99309.44;;;20.16
42197;BMP280;27866;48.146;17.098;2022-09-24T16:49:03;99301.09;;;20.04
42197;BMP280;27866;48.146;17.098;2022-09-24T16:53:14;99310.88;;;19.96
42197;BMP280;27866;48.146;17.098;2022-09-24T16:57:26;99300.72;;;19.86
42197;BMP280;27866;48.146;17.098;2022-09-24T17:01:37;99300.94;;;19.76
42197;BMP280;27866;48.146;17.098;2022-09-24T17:05:49;99310.03;;;19.66
42197;BMP280;27866;48.146;17.098;2022-09-24T17:10:00;99317.94;;;19.58
42197;BMP280;27866;48.146;17.098;2022-09-24T17:14:25;99324.19;;;19.50
42197;BMP280;27866;48.146;17.098;2022-09-24T17:18:37;99327.66;;;19.43
42197;BMP280;27866;48.146;17.098;2022-09-24T17:22:48;99325.53;;;19.38
42197;BMP280;27866;48.146;17.098;2022-09-24T17:26:59;99324.22;;;19.42
42197;BMP280;27866;48.146;17.098;2022-09-24T17:31:15;99331.28;;;19.42
42197;BMP280;27866;48.146;17.098;2022-09-24T17:35:26;99339.00;;;19.43
42197;BMP280;27866;48.146;17.098;2022-09-24T17:39:39;99333.75;;;19.43
42197;BMP280;27866;48.146;17.098;2022-09-24T17:43:50;99332.91;;;19.43
42197;BMP280;27866;48.146;17.098;2022-09-24T17:48:01;99342.47;;;19.44
42197;BMP280;27866;48.146;17.098;2022-09-24T17:52:13;99338.66;;;19.46
42197;BMP280;27866;48.146;17.098;2022-09-24T17:56:26;99339.47;;;19.46
42197;BMP280;27866;48.146;17.098;2022-09-24T18:00:37;99341.13;;;19.47
42197;BMP280;27866;48.146;17.098;2022-09-24T18:04:49;99340.31;;;19.47
42197;BMP280;27866;48.146;17.098;2022-09-24T18:09:00;99325.03;;;19.35
42197;BMP280;27866;48.146;17.098;2022-09-24T18:13:11;99336.38;;;19.28
42197;BMP280;27866;48.146;17.098;2022-09-24T18:17:24;99338.03;;;19.21
42197;BMP280;27866;48.146;17.098;2022-09-24T18:21:35;99338.84;;;19.21
42197;BMP280;27866;48.146;17.098;2022-09-24T18:25:46;99345.75;;;19.22
42197;BMP280;27866;48.146;17.098;2022-09-24T18:29:57;99338.19;;;19.27
42197;BMP280;27866;48.146;17.098;2022-09-24T18:34:12;99348.69;;;19.27
42197;BMP280;27866;48.146;17.098;2022-09-24T18:38:24;99344.59;;;19.25
42197;BMP280;27866;48.146;17.098;2022-09-24T18:42:35;99343.78;;;19.24
42197;BMP280;27866;48.146;17.098;2022-09-24T18:46:46;99338.34;;;19.26
42197;BMP280;27866;48.146;17.098;2022-09-24T18:50:58;99335.72;;;19.26
42197;BMP280;27866;48.146;17.098;2022-09-24T18:55:09;99334.25;;;19.23
42197;BMP280;27866;48.146;17.098;2022-09-24T18:59:21;99340.66;;;19.21
42197;BMP280;27866;48.146;17.098;2022-09-24T19:03:32;99335.56;;;19.19
42197;BMP280;27866;48.146;17.098;2022-09-24T19:07:43;99340.81;;;19.19
42197;BMP280;27866;48.146;17.098;2022-09-24T19:11:54;99338.88;;;19.14
42197;BMP280;27866;48.146;17.098;2022-09-24T19:16:10;99340.19;;;19.10
42197;BMP280;27866;48.146;17.098;2022-09-24T19:20:22;99336.09;;;19.07
42197;BMP280;27866;48.146;17.098;2022-09-24T19:24:33;99332.81;;;19.05
42197;BMP280;27866;48.146;17.098;2022-09-24T19:28:46;99326.06;;;19.11
42197;BMP280;27866;48.146;17.098;2022-09-24T19:32:57;99328.22;;;19.07
42197;BMP280;27866;48.146;17.098;2022-09-24T19:37:09;99325.44;;;19.01
42197;BMP280;27866;48.146;17.098;2022-09-24T19:41:25;99316.41;;;19.03
42197;BMP280;27866;48.146;17.098;2022-09-24T19:45:36;99320.66;;;19.04
42197;BMP280;27866;48.146;17.098;2022-09-24T19:49:47;99320.19;;;19.01
42197;BMP280;27866;48.146;17.098;2022-09-24T19:54:02;99312.00;;;18.96
42197;BMP280;27866;48.146;17.098;2022-09-24T19:58:14;99316.78;;;18.93
42197;BMP280;27866;48.146;17.098;2022-09-24T20:02:25;99311.84;;;18.90
42197;BMP280;27866;48.146;17.098;2022-09-24T20:06:37;99312.66;;;18.83
42197;BMP280;27866;48.146;17.098;2022-09-24T20:10:48;99313.16;;;18.78
42197;BMP280;27866;48.146;17.098;2022-09-24T20:14:59;99312.03;;;18.73
42197;BMP280;27866;48.146;17.098;2022-09-24T20:19:11;99325.13;;;18.65
42197;BMP280;27866;48.146;17.098;2022-09-24T20:23:22;99325.13;;;18.57
42197;BMP280;27866;48.146;17.098;2022-09-24T20:27:33;99332.16;;;18.49
42197;BMP280;27866;48.146;17.098;2022-09-24T20:32:03;99338.53;;;18.39
42197;BMP280;27866;48.146;17.098;2022-09-24T20:36:15;99336.38;;;18.27
42197;BMP280;27866;48.146;17.098;2022-09-24T20:40:26;99332.09;;;18.18
42197;BMP280;27866;48.146;17.098;2022-09-24T20:44:39;99342.25;;;18.06
42197;BMP280;27866;48.146;17.098;2022-09-24T20:48:54;99328.97;;;18.07
42197;BMP280;27866;48.146;17.098;2022-09-24T20:53:08;99332.59;;;18.22
42197;BMP280;27866;48.146;17.098;2022-09-24T20:57:20;99324.56;;;18.31
42197;BMP280;27866;48.146;17.098;2022-09-24T21:01:31;99332.94;;;18.42
42197;BMP280;27866;48.146;17.098;2022-09-24T21:05:42;99324.13;;;18.51
42197;BMP280;27866;48.146;17.098;2022-09-24T21:09:53;99328.06;;;18.55
42197;BMP280;27866;48.146;17.098;2022-09-24T21:14:10;99330.06;;;18.60
42197;BMP280;27866;48.146;17.098;2022-09-24T21:18:21;99323.78;;;18.54
42197;BMP280;27866;48.146;17.098;2022-09-24T21:22:33;99330.00;;;18.45
42197;BMP280;27866;48.146;17.098;2022-09-24T21:26:45;99336.88;;;18.38
42197;BMP280;27866;48.146;17.098;2022-09-24T21:30:56;99337.38;;;18.34
42197;BMP280;27866;48.146;17.098;2022-09-24T21:35:09;99339.00;;;18.35
42197;BMP280;27866;48.146;17.098;2022-09-24T21:39:22;99332.97;;;18.34
42197;BMP280;27866;48.146;17.098;2022-09-24T21:43:34;99330.66;;;18.31
42197;BMP280;27866;48.146;17.098;2022-09-24T21:47:45;99324.44;;;18.32
42197;BMP280;27866;48.146;17.098;2022-09-24T21:51:57;99331.00;;;18.28
42197;BMP280;27866;48.146;17.098;2022-09-24T21:56:08;99321.47;;;18.27
42197;BMP280;27866;48.146;17.098;2022-09-24T22:00:20;99321.16;;;18.30
42197;BMP280;27866;48.146;17.098;2022-09-24T22:04:31;99310.34;;;18.33
42197;BMP280;27866;48.146;17.098;2022-09-24T22:08:43;99305.44;;;18.30
42197;BMP280;27866;48.146;17.098;2022-09-24T22:12:56;99313.59;;;18.27
42197;BMP280;27866;48.146;17.098;2022-09-24T22:17:07;99318.53;;;18.23
42197;BMP280;27866;48.146;17.098;2022-09-24T22:21:18;99302.13;;;18.13
42197;BMP280;27866;48.146;17.098;2022-09-24T22:25:29;99309.63;;;18.08
42197;BMP280;27866;48.146;17.098;2022-09-24T22:29:41;99307.31;;;17.98
42197;BMP280;27866;48.146;17.098;2022-09-24T22:33:52;99309.63;;;17.93
42197;BMP280;27866;48.146;17.098;2022-09-24T22:38:22;99307.78;;;17.85
42197;BMP280;27866;48.146;17.098;2022-09-24T22:42:33;99311.59;;;17.91
42197;BMP280;27866;48.146;17.098;2022-09-24T22:46:44;99304.38;;;17.93
42197;BMP280;27866;48.146;17.098;2022-09-24T22:50:55;99289.94;;;17.97
42197;BMP280;27866;48.146;17.098;2022-09-24T22:55:07;99289.66;;;17.99
42197;BMP280;27866;48.146;17.098;2022-09-24T22:59:18;99296.03;;;18.05
42197;BMP280;27866;48.146;17.098;2022-09-24T23:03:29;99288.66;;;18.08
42197;BMP280;27866;48.146;17.098;2022-09-24T23:07:41;99297.84;;;18.12
42197;BMP280;27866;48.146;17.098;2022-09-24T23:11:52;99292.94;;;18.09
42197;BMP280;27866;48.146;17.098;2022-09-24T23:16:16;99298.19;;;18.09
42197;BMP280;27866;48.146;17.098;2022-09-24T23:20:27;99295.06;;;18.06
42197;BMP280;27866;48.146;17.098;2022-09-24T23:24:38;99299.16;;;18.08
42197;BMP280;27866;48.146;17.098;2022-09-24T23:28:52;99311.97;;;18.19
42197;BMP280;27866;48.146;17.098;2022-09-24T23:33:03;99321.28;;;18.21
42197;BMP280;27866;48.146;17.098;2022-09-24T23:37:14;99318.19;;;18.26
42197;BMP280;27866;48.146;17.098;2022-09-24T23:41:26;99317.06;;;18.28
42197;BMP280;27866;48.146;17.098;2022-09-24T23:45:38;99321.31;;;18.29
42197;BMP280;27866;48.146;17.098;2022-09-24T23:49:49;99316.03;;;18.21
42197;BMP280;27866;48.146;17.098;2022-09-24T23:54:00;99302.44;;;18.18
42197;BMP280;27866;48.146;17.098;2022-09-24T23:58:13;99295.84;;;17.98
